createdAt,value
2022-08-21T00:00:14.665Z,28.31
2022-08-21T00:02:56.836Z,28.30
2022-08-21T00:05:23.814Z,28.30
2022-08-21T00:07:50.553Z,28.30
2022-08-21T00:10:17.204Z,28.30
2022-08-21T00:12:43.976Z,28.29
2022-08-21T00:15:11.295Z,28.29
2022-08-21T00:17:38.500Z,28.29
2022-08-21T00:20:06.944Z,28.28
2022-08-21T00:22:33.566Z,28.28
2022-08-21T00:25:00.140Z,28.28
2022-08-21T00:27:26.752Z,28.27
2022-08-21T00:29:54.596Z,28.28
2022-08-21T00:32:22.655Z,28.26
2022-08-21T00:34:49.236Z,28.26
2022-08-21T00:37:16.090Z,28.26
2022-08-21T00:39:42.752Z,28.26
2022-08-21T00:42:10.034Z,28.26
2022-08-21T00:44:36.620Z,28.27
2022-08-21T00:47:03.223Z,28.24
2022-08-21T00:49:29.793Z,28.25
2022-08-21T00:51:59.164Z,28.25
2022-08-21T00:54:26.435Z,28.24
2022-08-21T00:56:57.178Z,28.24
2022-08-21T00:59:26.534Z,28.23
2022-08-21T01:01:53.306Z,28.24
2022-08-21T01:04:20.010Z,28.21
2022-08-21T01:06:46.658Z,28.21
2022-08-21T01:09:13.448Z,28.22
2022-08-21T01:11:40.271Z,28.21
2022-08-21T01:14:06.923Z,28.21
2022-08-21T01:16:33.865Z,28.19
2022-08-21T01:19:00.435Z,28.19
2022-08-21T01:21:28.432Z,28.19
2022-08-21T01:23:55.616Z,28.19
2022-08-21T01:26:34.104Z,28.19
2022-08-21T01:29:13.334Z,28.18
2022-08-21T01:31:40.079Z,28.18
2022-08-21T01:34:06.735Z,28.17
2022-08-21T01:36:33.488Z,28.17
2022-08-21T01:39:00.065Z,28.16
2022-08-21T01:41:26.644Z,28.15
2022-08-21T01:43:53.228Z,28.15
2022-08-21T01:46:19.785Z,28.16
2022-08-21T01:48:46.370Z,28.15
2022-08-21T01:51:13.029Z,28.15
2022-08-21T01:53:39.675Z,28.16
2022-08-21T01:56:12.585Z,28.14
2022-08-21T01:58:42.604Z,28.14
2022-08-21T02:01:10.218Z,28.15
2022-08-21T02:03:37.307Z,28.13
2022-08-21T02:06:05.331Z,28.12
2022-08-21T02:08:32.017Z,28.11
2022-08-21T02:10:58.726Z,28.11
2022-08-21T02:13:25.508Z,28.12
2022-08-21T02:15:52.101Z,28.11
2022-08-21T02:18:19.231Z,28.11
2022-08-21T02:20:47.997Z,28.10
2022-08-21T02:23:14.753Z,28.11
2022-08-21T02:25:41.406Z,28.10
2022-08-21T02:28:10.861Z,28.10
2022-08-21T02:30:40.831Z,28.09
2022-08-21T02:33:08.237Z,28.09
2022-08-21T02:35:34.851Z,28.08
2022-08-21T02:38:04.761Z,28.08
2022-08-21T02:40:33.837Z,28.08
2022-08-21T02:43:00.630Z,28.08
2022-08-21T02:45:29.584Z,28.07
2022-08-21T02:47:58.161Z,28.08
2022-08-21T02:50:36.291Z,28.06
2022-08-21T02:53:02.974Z,28.07
2022-08-21T02:55:31.015Z,28.06
2022-08-21T02:57:57.798Z,28.05
2022-08-21T03:00:25.214Z,28.05
2022-08-21T03:02:52.813Z,28.05
2022-08-21T03:05:19.915Z,28.05
2022-08-21T03:07:47.384Z,28.05
2022-08-21T03:10:14.170Z,28.04
2022-08-21T03:12:40.923Z,28.04
2022-08-21T03:15:08.815Z,28.04
2022-08-21T03:17:35.401Z,28.03
2022-08-21T03:20:02.119Z,28.03
2022-08-21T03:22:29.487Z,28.02
2022-08-21T03:24:58.315Z,28.03
2022-08-21T03:27:25.535Z,28.02
2022-08-21T03:29:52.096Z,28.02
2022-08-21T03:32:18.690Z,28.01
2022-08-21T03:34:45.262Z,28.01
2022-08-21T03:37:12.026Z,28.01
2022-08-21T03:39:38.671Z,28.00
2022-08-21T03:42:05.972Z,28.01
2022-08-21T03:44:32.560Z,28.00
2022-08-21T03:46:59.238Z,28.00
2022-08-21T03:49:26.323Z,27.99
2022-08-21T03:51:59.187Z,27.98
2022-08-21T03:54:26.465Z,27.99
2022-08-21T03:56:55.620Z,27.98
2022-08-21T03:59:22.194Z,27.98
2022-08-21T04:01:59.671Z,27.99
2022-08-21T04:04:26.734Z,27.98
2022-08-21T04:06:53.330Z,27.97
2022-08-21T04:09:19.983Z,27.98
2022-08-21T04:11:47.834Z,27.97
2022-08-21T04:14:15.209Z,27.96
2022-08-21T04:16:42.963Z,27.97
2022-08-21T04:19:09.946Z,27.97
2022-08-21T04:21:37.466Z,27.96
2022-08-21T04:24:04.844Z,27.97
2022-08-21T04:26:31.920Z,27.96
2022-08-21T04:28:58.954Z,27.96
2022-08-21T04:31:25.809Z,27.95
2022-08-21T04:33:52.468Z,27.96
2022-08-21T04:36:23.004Z,27.96
2022-08-21T04:38:51.044Z,27.95
2022-08-21T04:41:17.628Z,27.95
2022-08-21T04:43:52.363Z,27.95
2022-08-21T04:46:19.920Z,27.95
2022-08-21T04:48:46.511Z,27.94
2022-08-21T04:51:30.119Z,27.94
2022-08-21T04:54:03.773Z,27.94
2022-08-21T04:56:46.433Z,27.93
2022-08-21T04:59:17.420Z,27.94
2022-08-21T05:01:44.081Z,27.93
2022-08-21T05:04:13.080Z,27.93
2022-08-21T05:06:39.914Z,27.93
2022-08-21T05:09:06.601Z,27.94
2022-08-21T05:11:33.291Z,27.93
2022-08-21T05:14:00.132Z,27.94
2022-08-21T05:16:36.376Z,27.93
2022-08-21T05:19:04.259Z,27.93
2022-08-21T05:21:30.834Z,27.92
2022-08-21T05:23:57.441Z,27.92
2022-08-21T05:26:24.212Z,27.92
2022-08-21T05:28:50.790Z,27.92
2022-08-21T05:31:17.609Z,27.93
2022-08-21T05:33:44.182Z,27.92
2022-08-21T05:36:10.748Z,27.92
2022-08-21T05:38:37.332Z,27.92
2022-08-21T05:41:03.972Z,27.92
2022-08-21T05:43:30.663Z,27.93
2022-08-21T05:45:57.221Z,27.91
2022-08-21T05:48:24.661Z,27.92
2022-08-21T05:50:52.668Z,27.91
2022-08-21T05:53:19.919Z,27.91
2022-08-21T05:55:47.055Z,27.92
2022-08-21T05:58:15.055Z,27.92
2022-08-21T06:00:41.953Z,27.91
2022-08-21T06:03:13.312Z,27.92
2022-08-21T06:05:39.931Z,27.92
2022-08-21T06:08:06.511Z,27.91
2022-08-21T06:10:33.109Z,27.92
2022-08-21T06:12:59.871Z,27.91
2022-08-21T06:15:26.628Z,27.91
2022-08-21T06:17:54.210Z,27.91
2022-08-21T06:20:20.945Z,27.92
2022-08-21T06:22:47.569Z,27.92
2022-08-21T06:25:14.141Z,27.92
2022-08-21T06:27:40.711Z,27.92
2022-08-21T06:30:08.296Z,27.91
2022-08-21T06:32:35.640Z,27.93
2022-08-21T06:35:02.308Z,27.93
2022-08-21T06:37:29.039Z,27.93
2022-08-21T06:39:55.647Z,27.92
2022-08-21T06:42:22.411Z,27.92
2022-08-21T06:44:54.624Z,27.93
2022-08-21T06:47:21.301Z,27.93
2022-08-21T06:49:47.871Z,27.94
2022-08-21T06:52:14.606Z,27.94
2022-08-21T06:54:41.275Z,27.94
2022-08-21T06:57:07.864Z,27.94
2022-08-21T06:59:34.478Z,27.97
2022-08-21T07:02:01.182Z,27.96
2022-08-21T07:04:27.830Z,27.96
2022-08-21T07:06:54.402Z,27.95
2022-08-21T07:09:24.540Z,27.96
2022-08-21T07:11:54.553Z,27.96
2022-08-21T07:14:21.219Z,27.96
2022-08-21T07:16:48.754Z,27.97
2022-08-21T07:19:15.357Z,27.97
2022-08-21T07:21:41.939Z,27.97
2022-08-21T07:24:08.509Z,27.96
2022-08-21T07:26:35.147Z,27.97
2022-08-21T07:29:01.963Z,27.97
2022-08-21T07:31:28.803Z,27.98
2022-08-21T07:33:55.422Z,27.97
2022-08-21T07:36:21.992Z,27.98
2022-08-21T07:38:48.713Z,27.98
2022-08-21T07:41:24.728Z,27.98
2022-08-21T07:43:52.816Z,27.98
2022-08-21T07:46:19.770Z,27.99
2022-08-21T07:48:46.445Z,27.99
2022-08-21T07:51:13.975Z,28.00
2022-08-21T07:53:42.091Z,28.00
2022-08-21T07:56:09.289Z,28.00
2022-08-21T07:58:35.912Z,28.03
2022-08-21T08:01:07.430Z,28.06
2022-08-21T08:03:34.276Z,28.08
2022-08-21T08:06:00.887Z,28.12
2022-08-21T08:08:27.489Z,28.14
2022-08-21T08:10:55.012Z,28.16
2022-08-21T08:13:21.599Z,28.17
2022-08-21T08:15:48.230Z,28.20
2022-08-21T08:18:14.902Z,28.20
2022-08-21T08:20:42.135Z,28.19
2022-08-21T08:23:11.537Z,28.21
2022-08-21T08:25:38.099Z,28.20
2022-08-21T08:28:16.369Z,28.21
2022-08-21T08:30:44.390Z,28.21
2022-08-21T08:33:10.963Z,28.23
2022-08-21T08:35:41.307Z,28.22
2022-08-21T08:38:08.857Z,28.22
2022-08-21T08:41:18.303Z,28.22
2022-08-21T08:43:51.189Z,28.23
2022-08-21T08:46:18.946Z,28.23
2022-08-21T08:48:59.867Z,28.25
2022-08-21T08:51:32.181Z,28.26
2022-08-21T08:54:01.321Z,28.26
2022-08-21T08:56:32.975Z,28.25
2022-08-21T08:59:18.263Z,28.26
2022-08-21T09:01:44.945Z,28.27
2022-08-21T09:04:13.519Z,28.26
2022-08-21T09:07:00.477Z,28.27
2022-08-21T09:09:27.850Z,28.28
2022-08-21T09:12:11.517Z,28.28
2022-08-21T09:15:15.770Z,28.29
2022-08-21T09:17:57.952Z,28.30
2022-08-21T09:20:56.175Z,28.32
2022-08-21T09:23:56.323Z,28.33
2022-08-21T09:26:25.779Z,28.34
2022-08-21T09:28:57.303Z,28.35
2022-08-21T09:31:26.963Z,28.36
2022-08-21T09:34:05.319Z,28.37
2022-08-21T09:36:52.070Z,28.37
2022-08-21T09:39:25.715Z,28.39
2022-08-21T09:41:59.990Z,28.40
2022-08-21T09:44:29.680Z,28.39
2022-08-21T09:46:56.626Z,28.39
2022-08-21T09:49:30.753Z,28.40
2022-08-21T09:51:57.336Z,28.39
2022-08-21T09:54:28.069Z,28.40
2022-08-21T09:57:24.570Z,28.39
2022-08-21T09:59:51.592Z,28.39
2022-08-21T10:02:32.172Z,28.39
2022-08-21T10:05:03.046Z,28.40
2022-08-21T10:07:31.556Z,28.42
2022-08-21T10:10:16.264Z,28.44
2022-08-21T10:12:47.959Z,28.44
2022-08-21T10:15:25.756Z,28.44
2022-08-21T10:18:16.007Z,28.44
2022-08-21T10:20:47.209Z,28.44
2022-08-21T10:23:35.203Z,28.47
2022-08-21T10:26:16.935Z,28.46
2022-08-21T10:29:04.837Z,28.47
2022-08-21T10:31:38.744Z,28.47
2022-08-21T10:34:25.174Z,28.48
2022-08-21T10:37:12.301Z,28.48
2022-08-21T10:40:05.700Z,28.45
2022-08-21T10:42:32.144Z,28.46
2022-08-21T10:45:09.606Z,28.45
2022-08-21T10:47:43.692Z,28.44
2022-08-21T10:50:28.975Z,28.44
2022-08-21T10:53:23.712Z,28.43
2022-08-21T10:56:00.299Z,28.42
2022-08-21T10:58:31.813Z,28.42
2022-08-21T11:01:02.369Z,28.42
2022-08-21T11:03:40.279Z,28.41
2022-08-21T11:06:12.330Z,28.41
2022-08-21T11:08:52.234Z,28.41
2022-08-21T11:11:31.083Z,28.40
2022-08-21T11:14:08.574Z,28.40
2022-08-21T11:16:58.230Z,28.40
2022-08-21T11:19:43.436Z,28.39
2022-08-21T11:22:46.379Z,28.40
2022-08-21T11:25:27.103Z,28.39
2022-08-21T11:28:14.748Z,28.39
2022-08-21T11:31:07.477Z,28.38
2022-08-21T11:34:12.344Z,28.39
2022-08-21T11:36:52.680Z,28.39
2022-08-21T11:39:44.024Z,28.38
2022-08-21T11:42:16.611Z,28.38
2022-08-21T11:44:49.466Z,28.38
2022-08-21T11:47:41.728Z,28.38
2022-08-21T11:50:34.020Z,28.37
2022-08-21T11:53:16.599Z,28.37
2022-08-21T11:55:50.217Z,28.36
2022-08-21T11:58:26.940Z,28.36
2022-08-21T12:00:56.581Z,28.36
2022-08-21T12:03:34.023Z,28.35
2022-08-21T12:06:08.967Z,28.35
2022-08-21T12:08:37.417Z,28.35
2022-08-21T12:11:08.553Z,28.35
2022-08-21T12:13:42.677Z,28.35
2022-08-21T12:16:36.194Z,28.35
2022-08-21T12:19:20.734Z,28.35
2022-08-21T12:22:00.109Z,28.36
2022-08-21T12:24:29.457Z,28.33
2022-08-21T12:26:57.827Z,28.36
2022-08-21T12:29:30.283Z,28.35
2022-08-21T12:32:02.177Z,28.35
2022-08-21T12:34:35.594Z,28.34
2022-08-21T12:37:06.668Z,28.35
2022-08-21T12:39:34.394Z,28.35
2022-08-21T12:42:14.449Z,28.35
2022-08-21T12:44:52.691Z,28.35
2022-08-21T12:47:43.484Z,28.34
2022-08-21T12:50:17.495Z,28.34
2022-08-21T12:52:50.068Z,28.33
2022-08-21T12:55:17.961Z,28.32
2022-08-21T12:57:44.550Z,28.33
2022-08-21T13:00:14.039Z,28.32
2022-08-21T13:02:44.626Z,28.32
2022-08-21T13:05:14.383Z,28.31
2022-08-21T13:07:45.251Z,28.32
2022-08-21T13:10:23.068Z,28.31
2022-08-21T13:12:49.728Z,28.31
2022-08-21T13:15:22.842Z,28.30
2022-08-21T13:17:51.056Z,28.30
2022-08-21T13:20:26.637Z,28.30
2022-08-21T13:22:53.251Z,28.29
2022-08-21T13:25:21.759Z,28.29
2022-08-21T13:28:02.209Z,28.29
2022-08-21T13:30:28.943Z,28.29
2022-08-21T13:33:00.630Z,28.29
2022-08-21T13:35:32.679Z,28.29
2022-08-21T13:37:59.440Z,28.29
2022-08-21T13:40:29.033Z,28.29
2022-08-21T13:42:55.823Z,28.30
2022-08-21T13:45:28.409Z,28.29
2022-08-21T13:47:55.113Z,28.29
2022-08-21T13:50:22.751Z,28.29
2022-08-21T13:52:56.060Z,28.28
2022-08-21T13:55:22.635Z,28.28
2022-08-21T13:57:49.197Z,28.28
2022-08-21T14:00:21.151Z,28.28
2022-08-21T14:02:49.433Z,28.28
2022-08-21T14:05:26.076Z,28.28
2022-08-21T14:07:57.687Z,28.26
2022-08-21T14:10:24.264Z,28.27
2022-08-21T14:12:55.878Z,28.26
2022-08-21T14:15:29.506Z,28.25
2022-08-21T14:18:06.935Z,28.25
2022-08-21T14:20:35.551Z,28.24
2022-08-21T14:23:02.211Z,28.23
2022-08-21T14:25:28.911Z,28.23
2022-08-21T14:28:27.893Z,28.23
2022-08-21T14:30:55.098Z,28.22
2022-08-21T14:33:32.678Z,28.22
2022-08-21T14:35:59.393Z,28.21
2022-08-21T14:38:27.350Z,28.21
2022-08-21T14:41:00.180Z,28.21
2022-08-21T14:43:27.583Z,28.19
2022-08-21T14:45:54.582Z,28.20
2022-08-21T14:48:21.143Z,28.18
2022-08-21T14:50:48.365Z,28.19
2022-08-21T14:53:15.773Z,28.18
2022-08-21T14:56:01.051Z,28.17
2022-08-21T14:58:27.719Z,28.17
2022-08-21T15:00:55.027Z,28.17
2022-08-21T15:03:22.906Z,28.17
2022-08-21T15:05:50.071Z,28.16
2022-08-21T15:08:17.141Z,28.16
2022-08-21T15:10:57.333Z,28.16
2022-08-21T15:13:31.584Z,28.16
2022-08-21T15:15:58.303Z,28.15
2022-08-21T15:18:26.137Z,28.14
2022-08-21T15:20:52.898Z,28.14
2022-08-21T15:23:19.591Z,28.14
2022-08-21T15:25:47.065Z,28.14
2022-08-21T15:28:14.318Z,28.14
2022-08-21T15:30:41.775Z,28.13
2022-08-21T15:33:08.388Z,28.13
2022-08-21T15:35:38.393Z,28.12
2022-08-21T15:38:07.746Z,28.11
2022-08-21T15:40:38.094Z,28.12
2022-08-21T15:43:05.462Z,28.11
2022-08-21T15:45:32.240Z,28.10
2022-08-21T15:47:58.935Z,28.11
2022-08-21T15:50:25.543Z,28.10
2022-08-21T15:52:52.177Z,28.09
2022-08-21T15:55:18.902Z,28.10
2022-08-21T15:57:57.275Z,28.10
2022-08-21T16:00:25.093Z,28.10
2022-08-21T16:02:56.327Z,28.08
2022-08-21T16:05:23.075Z,28.08
2022-08-21T16:07:50.120Z,28.08
2022-08-21T16:10:19.659Z,28.08
2022-08-21T16:12:48.991Z,28.08
2022-08-21T16:15:20.470Z,28.07
2022-08-21T16:17:50.241Z,28.07
2022-08-21T16:20:26.310Z,28.07
2022-08-21T16:22:53.714Z,28.08
2022-08-21T16:25:20.389Z,28.08
2022-08-21T16:27:50.255Z,28.07
2022-08-21T16:30:18.295Z,28.07
2022-08-21T16:32:44.919Z,28.07
2022-08-21T16:35:13.612Z,28.08
2022-08-21T16:37:40.990Z,28.07
2022-08-21T16:40:10.412Z,28.07
2022-08-21T16:42:37.916Z,28.07
2022-08-21T16:45:11.896Z,28.07
2022-08-21T16:47:38.476Z,28.07
2022-08-21T16:50:06.491Z,28.06
2022-08-21T16:52:33.912Z,28.07
2022-08-21T16:55:00.526Z,28.06
2022-08-21T16:57:27.956Z,28.06
2022-08-21T16:59:54.543Z,28.07
2022-08-21T17:02:33.079Z,28.06
2022-08-21T17:04:59.737Z,28.06
2022-08-21T17:07:26.365Z,28.05
2022-08-21T17:09:52.939Z,28.06
2022-08-21T17:12:19.594Z,28.06
2022-08-21T17:14:46.590Z,28.05
2022-08-21T17:17:13.176Z,28.05
2022-08-21T17:19:39.804Z,28.06
2022-08-21T17:22:07.409Z,28.04
2022-08-21T17:24:34.998Z,28.04
2022-08-21T17:27:03.184Z,28.04
2022-08-21T17:29:33.239Z,28.04
2022-08-21T17:31:59.867Z,28.05
2022-08-21T17:34:31.775Z,28.03
2022-08-21T17:36:58.758Z,28.03
2022-08-21T17:39:26.730Z,28.03
2022-08-21T17:41:57.668Z,28.02
2022-08-21T17:44:24.818Z,28.02
2022-08-21T17:46:51.398Z,28.01
2022-08-21T17:49:18.009Z,28.02
2022-08-21T17:51:44.638Z,28.02
2022-08-21T17:54:11.271Z,28.01
2022-08-21T17:56:38.894Z,28.00
2022-08-21T17:59:05.591Z,28.01
2022-08-21T18:01:38.592Z,27.99
2022-08-21T18:04:05.615Z,27.99
2022-08-21T18:06:32.230Z,27.99
2022-08-21T18:08:58.885Z,27.99
2022-08-21T18:11:26.917Z,27.99
2022-08-21T18:13:54.235Z,27.97
2022-08-21T18:16:21.413Z,27.98
2022-08-21T18:18:51.898Z,27.98
2022-08-21T18:21:18.726Z,27.98
2022-08-21T18:23:45.312Z,27.98
2022-08-21T18:26:14.173Z,27.96
2022-08-21T18:28:40.742Z,27.97
2022-08-21T18:31:09.177Z,27.97
2022-08-21T18:33:37.116Z,27.96
2022-08-21T18:36:04.471Z,27.97
2022-08-21T18:38:33.930Z,27.95
2022-08-21T18:41:00.566Z,27.95
2022-08-21T18:43:27.666Z,27.95
2022-08-21T18:45:54.278Z,27.94
2022-08-21T18:48:20.905Z,27.94
2022-08-21T18:50:53.334Z,27.94
2022-08-21T18:53:27.939Z,27.94
2022-08-21T18:55:57.796Z,27.93
2022-08-21T18:58:32.366Z,27.94
2022-08-21T19:00:58.980Z,27.92
2022-08-21T19:03:25.671Z,27.92
2022-08-21T19:05:52.992Z,27.93
2022-08-21T19:08:22.550Z,27.92
2022-08-21T19:10:50.457Z,27.91
2022-08-21T19:13:19.523Z,27.91
2022-08-21T19:15:49.839Z,27.91
2022-08-21T19:18:18.059Z,27.91
2022-08-21T19:20:47.418Z,27.90
2022-08-21T19:23:15.014Z,27.90
2022-08-21T19:25:42.859Z,27.90
2022-08-21T19:28:12.503Z,27.90
2022-08-21T19:30:45.911Z,27.89
2022-08-21T19:33:40.992Z,27.89
2022-08-21T19:36:11.319Z,27.89
2022-08-21T19:38:38.137Z,27.89
2022-08-21T19:41:05.047Z,27.88
2022-08-21T19:43:41.023Z,27.88
2022-08-21T19:46:07.710Z,27.87
2022-08-21T19:48:35.883Z,27.87
2022-08-21T19:51:02.528Z,27.86
2022-08-21T19:53:29.119Z,27.86
2022-08-21T19:55:55.720Z,27.86
2022-08-21T19:58:42.362Z,27.85
2022-08-21T20:01:11.377Z,27.86
2022-08-21T20:03:43.252Z,27.85
2022-08-21T20:06:09.850Z,27.85
2022-08-21T20:08:36.560Z,27.85
2022-08-21T20:11:04.179Z,27.84
2022-08-21T20:13:34.419Z,27.84
2022-08-21T20:16:01.875Z,27.83
2022-08-21T20:18:29.238Z,27.83
2022-08-21T20:20:55.899Z,27.82
2022-08-21T20:23:30.482Z,27.83
2022-08-21T20:25:59.682Z,27.82
2022-08-21T20:28:29.241Z,27.82
2022-08-21T20:30:56.469Z,27.81
2022-08-21T20:33:23.642Z,27.81
2022-08-21T20:35:52.194Z,27.81
2022-08-21T20:38:19.228Z,27.81
2022-08-21T20:40:47.803Z,27.80
2022-08-21T20:43:14.394Z,27.80
2022-08-21T20:45:40.971Z,27.80
2022-08-21T20:48:26.550Z,27.79
2022-08-21T20:51:07.221Z,27.79
2022-08-21T20:53:43.953Z,27.79
2022-08-21T20:56:15.509Z,27.79
2022-08-21T20:58:50.790Z,27.79
2022-08-21T21:01:17.357Z,27.78
2022-08-21T21:04:04.718Z,27.78
2022-08-21T21:06:36.437Z,27.78
2022-08-21T21:09:11.125Z,27.77
2022-08-21T21:11:50.001Z,27.77
2022-08-21T21:14:23.266Z,27.78
2022-08-21T21:16:52.278Z,27.76
2022-08-21T21:19:26.344Z,27.76
2022-08-21T21:22:03.289Z,27.77
2022-08-21T21:24:58.654Z,27.76
2022-08-21T21:27:35.218Z,27.76
2022-08-21T21:30:35.281Z,27.76
2022-08-21T21:33:02.608Z,27.75
2022-08-21T21:35:38.437Z,27.75
2022-08-21T21:38:10.948Z,27.75
2022-08-21T21:41:16.992Z,27.75
2022-08-21T21:44:18.044Z,27.74
2022-08-21T21:47:09.265Z,27.74
2022-08-21T21:49:49.623Z,27.74
2022-08-21T21:52:39.539Z,27.73
2022-08-21T21:55:23.646Z,27.72
2022-08-21T21:58:10.546Z,27.73
2022-08-21T22:00:52.173Z,27.72
2022-08-21T22:03:29.137Z,27.72
2022-08-21T22:06:04.416Z,27.71
2022-08-21T22:08:30.843Z,27.70
2022-08-21T22:11:36.531Z,27.70
2022-08-21T22:14:06.078Z,27.70
2022-08-21T22:16:35.448Z,27.70
2022-08-21T22:19:26.418Z,27.70
2022-08-21T22:22:01.847Z,27.69
2022-08-21T22:24:35.446Z,27.70
2022-08-21T22:27:03.515Z,27.69
2022-08-21T22:29:48.661Z,27.69
2022-08-21T22:32:26.133Z,27.68
2022-08-21T22:35:09.613Z,27.67
2022-08-21T22:37:41.266Z,27.68
2022-08-21T22:40:08.403Z,27.68
2022-08-21T22:42:35.116Z,27.66
2022-08-21T22:45:04.794Z,27.67
2022-08-21T22:47:43.174Z,27.66
2022-08-21T22:50:28.713Z,27.66
2022-08-21T22:53:06.140Z,27.65
2022-08-21T22:55:40.642Z,27.66
2022-08-21T22:58:18.379Z,27.65
2022-08-21T23:01:07.595Z,27.65
2022-08-21T23:03:45.014Z,27.64
2022-08-21T23:06:32.023Z,27.63
2022-08-21T23:09:00.377Z,27.63
2022-08-21T23:11:36.165Z,27.63
2022-08-21T23:14:02.791Z,27.63
2022-08-21T23:16:47.567Z,27.62
2022-08-21T23:19:26.751Z,27.62
2022-08-21T23:22:02.176Z,27.62
2022-08-21T23:25:00.380Z,27.62
2022-08-21T23:28:03.869Z,27.62
2022-08-21T23:30:51.788Z,27.61
2022-08-21T23:33:38.623Z,27.61
2022-08-21T23:36:51.107Z,27.60
2022-08-21T23:39:20.683Z,27.60
2022-08-21T23:42:01.026Z,27.59
2022-08-21T23:44:47.108Z,27.60
2022-08-21T23:47:22.243Z,27.59
2022-08-21T23:50:15.922Z,27.58
2022-08-21T23:53:09.102Z,27.59
2022-08-21T23:55:55.384Z,27.59
2022-08-21T23:58:28.658Z,27.58
